Time;durP1;ratioP1;P1;durP2;ratioP2;P2;SDS_P1;SDS_P2;PMS_P1;PMS_P2;Temp;Humidity;BMP_temperature;BMP_pressure;BME280_temperature;BME280_humidity;BME280_pressure;Samples;Min_cycle;Max_cycle;Signal;HPM_P1;HPM_P2
2021/06/03 03:25:21;;;;;;;8.23;4.90;;;;;;;;;;5319326;22;20041;-70
2021/06/03 03:27:48;;;;;;;10.07;4.55;;;;;;;;;;5030456;28;20037;-69
2021/06/03 03:30:14;;;;;;;8.48;4.97;;;;;;;;;;5028552;28;20037;-68
2021/06/03 03:32:40;;;;;;;8.75;5.60;;;;;;;;;;5031016;28;20032;-69
2021/06/03 03:35:08;;;;;;;12.68;5.93;;;;;;;;;;5030966;28;20022;-69
2021/06/03 03:37:34;;;;;;;12.38;6.45;;;;;;;;;;5028405;28;20026;-68
2021/06/03 03:40:00;;;;;;;11.48;6.97;;;;;;;;;;5030882;28;20025;-68
2021/06/03 03:42:26;;;;;;;15.90;7.63;;;;;;;;;;5030733;28;20143;-68
2021/06/03 03:44:52;;;;;;;16.02;7.72;;;;;;;;;;5028106;28;20033;-68
2021/06/03 03:47:18;;;;;;;17.08;7.97;;;;;;;;;;5030795;28;20029;-68
2021/06/03 03:49:45;;;;;;;18.95;7.88;;;;;;;;;;5030682;28;20034;-69
2021/06/03 03:52:12;;;;;;;16.30;8.00;;;;;;;;;;5030660;28;20049;-69
2021/06/03 03:54:38;;;;;;;19.23;7.72;;;;;;;;;;5030759;28;20026;-67
2021/06/03 03:57:05;;;;;;;15.25;6.72;;;;;;;;;;5030796;28;20028;-66
2021/06/03 03:59:30;;;;;;;16.48;7.50;;;;;;;;;;5031225;28;20544;-66
2021/06/03 04:01:56;;;;;;;19.05;7.28;;;;;;;;;;5027928;28;20112;-67
2021/06/03 04:04:23;;;;;;;16.23;7.68;;;;;;;;;;5030225;28;20037;-68
2021/06/03 04:06:50;;;;;;;17.48;8.02;;;;;;;;;;5031631;28;20488;-67
2021/06/03 04:09:16;;;;;;;11.55;6.53;;;;;;;;;;5041142;28;20556;-67
2021/06/03 04:11:42;;;;;;;12.95;6.43;;;;;;;;;;5034360;28;20184;-67
2021/06/03 04:14:08;;;;;;;12.38;6.30;;;;;;;;;;5034544;28;20045;-66
2021/06/03 04:16:34;;;;;;;12.35;6.65;;;;;;;;;;5034181;28;20052;-68
2021/06/03 04:19:00;;;;;;;8.48;5.55;;;;;;;;;;5034070;28;20033;-67
2021/06/03 04:21:26;;;;;;;11.95;5.97;;;;;;;;;;5034206;28;20078;-67
2021/06/03 04:23:52;;;;;;;10.70;6.85;;;;;;;;;;5031226;28;20029;-68
2021/06/03 04:26:18;;;;;;;11.63;6.45;;;;;;;;;;5014316;28;20041;-67
2021/06/03 04:28:44;;;;;;;13.48;6.40;;;;;;;;;;5014225;28;20034;-68
2021/06/03 04:31:10;;;;;;;9.55;5.75;;;;;;;;;;5014349;28;20075;-67
2021/06/03 04:33:36;;;;;;;13.18;6.00;;;;;;;;;;5013360;28;20386;-68
2021/06/03 04:36:03;;;;;;;12.98;5.93;;;;;;;;;;5013520;28;20036;-67
2021/06/03 04:38:29;;;;;;;10.57;5.43;;;;;;;;;;5013659;28;20026;-67
2021/06/03 04:40:55;;;;;;;14.43;6.03;;;;;;;;;;5013307;28;20095;-68
2021/06/03 04:43:21;;;;;;;7.18;5.35;;;;;;;;;;5013089;28;20021;-68
2021/06/03 04:45:53;;;;;;;9.45;5.47;;;;;;;;;;5014447;28;20101;-68
2021/06/03 04:48:19;;;;;;;9.05;5.57;;;;;;;;;;5013023;28;20040;-68
2021/06/03 04:50:46;;;;;;;9.70;5.57;;;;;;;;;;5013638;28;20014;-67
2021/06/03 04:53:13;;;;;;;10.57;5.43;;;;;;;;;;5014260;28;20021;-68
2021/06/03 04:55:39;;;;;;;11.13;5.43;;;;;;;;;;5014333;28;20053;-67
2021/06/03 04:58:07;;;;;;;7.53;5.07;;;;;;;;;;5014150;28;20363;-67
2021/06/03 05:00:34;;;;;;;10.45;5.78;;;;;;;;;;5014309;28;20029;-69
2021/06/03 05:03:01;;;;;;;13.13;5.85;;;;;;;;;;5011852;28;20026;-70
2021/06/03 05:05:29;;;;;;;10.93;5.43;;;;;;;;;;5014048;28;20037;-68
2021/06/03 05:07:58;;;;;;;8.30;5.30;;;;;;;;;;4996992;28;20026;-67
2021/06/03 05:10:27;;;;;;;13.60;6.15;;;;;;;;;;5011832;28;20112;-71
2021/06/03 05:12:53;;;;;;;9.35;5.60;;;;;;;;;;5013400;28;20030;-71
2021/06/03 05:15:20;;;;;;;11.63;5.30;;;;;;;;;;5014198;28;20108;-68
2021/06/03 05:17:47;;;;;;;7.32;5.35;;;;;;;;;;5014462;28;20072;-68
2021/06/03 05:20:14;;;;;;;7.65;5.47;;;;;;;;;;5013884;28;20382;-69
2021/06/03 05:22:40;;;;;;;8.15;4.85;;;;;;;;;;5014884;28;20034;-70
2021/06/03 05:25:08;;;;;;;9.05;5.45;;;;;;;;;;5025103;28;20076;-69
2021/06/03 05:27:34;;;;;;;7.70;5.05;;;;;;;;;;5034172;28;20084;-69
2021/06/03 05:30:00;;;;;;;10.25;5.13;;;;;;;;;;5034358;28;20041;-70
2021/06/03 05:32:27;;;;;;;12.82;5.10;;;;;;;;;;5033078;28;20466;-69
2021/06/03 05:35:03;;;;;;;11.55;4.93;;;;;;;;;;5034392;28;20588;-67
2021/06/03 05:37:30;;;;;;;9.20;5.22;;;;;;;;;;5032871;28;20030;-68
2021/06/03 05:39:56;;;;;;;8.93;5.28;;;;;;;;;;5032988;28;20038;-67
2021/06/03 05:42:22;;;;;;;12.45;5.30;;;;;;;;;;5034086;28;20393;-67
2021/06/03 05:44:49;;;;;;;8.55;5.22;;;;;;;;;;5032641;28;20647;-67
2021/06/03 05:47:16;;;;;;;6.30;5.07;;;;;;;;;;5033562;28;20382;-68
2021/06/03 05:49:42;;;;;;;9.18;4.47;;;;;;;;;;5033906;28;20030;-67
2021/06/03 05:52:08;;;;;;;8.15;4.50;;;;;;;;;;5033065;28;20033;-67
2021/06/03 05:54:34;;;;;;;8.50;4.80;;;;;;;;;;5030345;28;20029;-68
2021/06/03 05:57:00;;;;;;;7.82;4.28;;;;;;;;;;5033572;28;20104;-67
2021/06/03 05:59:27;;;;;;;6.75;4.07;;;;;;;;;;5032422;28;20496;-67
2021/06/03 06:01:59;;;;;;;12.48;4.25;;;;;;;;;;5033022;28;20378;-66
2021/06/03 06:06:51;;;;;;;10.88;4.53;;;;;;;;;;5032817;28;20037;-68
2021/06/03 06:09:17;;;;;;;6.85;4.22;;;;;;;;;;5033512;28;20067;-67
2021/06/03 06:11:44;;;;;;;9.95;4.72;;;;;;;;;;5033696;28;20057;-67
2021/06/03 06:14:10;;;;;;;6.20;3.90;;;;;;;;;;5032869;28;20032;-68
2021/06/03 06:16:37;;;;;;;8.30;4.60;;;;;;;;;;5032986;28;20029;-69
2021/06/03 06:19:03;;;;;;;6.20;4.07;;;;;;;;;;5033563;28;20481;-67
2021/06/03 06:21:29;;;;;;;6.50;3.92;;;;;;;;;;5032826;28;20104;-68
2021/06/03 06:23:56;;;;;;;6.97;4.47;;;;;;;;;;5033107;28;20030;-68
2021/06/03 06:26:22;;;;;;;7.18;4.28;;;;;;;;;;5032967;28;20077;-67
2021/06/03 06:28:48;;;;;;;6.78;4.25;;;;;;;;;;5032601;28;20029;-68
2021/06/03 06:31:15;;;;;;;8.50;4.75;;;;;;;;;;5033007;28;20541;-67
2021/06/03 06:33:41;;;;;;;8.30;4.75;;;;;;;;;;5032546;28;20492;-68
2021/06/03 06:36:08;;;;;;;9.60;4.72;;;;;;;;;;5032673;28;20029;-67
2021/06/03 06:38:34;;;;;;;5.25;4.15;;;;;;;;;;5032887;28;20359;-67
2021/06/03 06:41:00;;;;;;;9.35;4.40;;;;;;;;;;5033017;28;20029;-68
2021/06/03 06:43:26;;;;;;;5.03;3.65;;;;;;;;;;5032235;28;20531;-69
2021/06/03 06:45:54;;;;;;;6.22;3.50;;;;;;;;;;5033168;28;20032;-68
2021/06/03 06:48:20;;;;;;;11.27;3.83;;;;;;;;;;5032747;28;20021;-68
2021/06/03 06:50:47;;;;;;;8.38;3.97;;;;;;;;;;5032323;28;20045;-68
2021/06/03 06:53:13;;;;;;;8.27;4.05;;;;;;;;;;5032736;28;20049;-68
2021/06/03 06:55:40;;;;;;;7.45;3.88;;;;;;;;;;5032713;28;20462;-67
2021/06/03 06:58:06;;;;;;;7.35;4.25;;;;;;;;;;5030998;28;20063;-68
2021/06/03 07:00:35;;;;;;;4.63;3.50;;;;;;;;;;5032845;28;20550;-67
2021/06/03 07:03:01;;;;;;;8.13;3.67;;;;;;;;;;5032454;28;20018;-68
2021/06/03 07:05:27;;;;;;;5.70;3.90;;;;;;;;;;5032131;28;20033;-68
2021/06/03 07:07:54;;;;;;;8.48;3.88;;;;;;;;;;5032366;28;20033;-67
2021/06/03 07:10:21;;;;;;;6.25;4.18;;;;;;;;;;5032065;28;20048;-68
2021/06/03 07:12:47;;;;;;;4.70;3.55;;;;;;;;;;5024926;28;20041;-69
2021/06/03 07:15:15;;;;;;;9.60;3.83;;;;;;;;;;5032392;28;20025;-68
2021/06/03 07:17:41;;;;;;;5.05;3.38;;;;;;;;;;5032291;28;20036;-68
2021/06/03 07:20:10;;;;;;;4.18;3.53;;;;;;;;;;5030105;28;20459;-69
2021/06/03 07:22:37;;;;;;;8.70;3.63;;;;;;;;;;5029401;28;20079;-68
2021/06/03 07:25:04;;;;;;;7.18;3.35;;;;;;;;;;5031494;28;20053;-69
2021/06/03 07:27:30;;;;;;;6.50;3.20;;;;;;;;;;5031437;28;20052;-69
2021/06/03 07:29:59;;;;;;;7.30;3.15;;;;;;;;;;5029901;28;20037;-68
2021/06/03 07:32:25;;;;;;;5.43;3.50;;;;;;;;;;5031581;28;20066;-68
2021/06/03 07:34:51;;;;;;;7.25;3.13;;;;;;;;;;5031223;28;20037;-70
2021/06/03 07:37:17;;;;;;;8.52;3.13;;;;;;;;;;5031046;28;20033;-68
2021/06/03 07:39:43;;;;;;;5.03;3.13;;;;;;;;;;5031399;28;20033;-68
2021/06/03 07:42:11;;;;;;;5.57;3.15;;;;;;;;;;5032554;28;20164;-69
2021/06/03 07:44:37;;;;;;;5.00;3.25;;;;;;;;;;5035186;28;20045;-69
2021/06/03 07:47:04;;;;;;;7.90;3.05;;;;;;;;;;5035395;28;20029;-68
2021/06/03 07:49:29;;;;;;;6.78;3.15;;;;;;;;;;5035526;28;20040;-68
2021/06/03 07:51:57;;;;;;;5.78;3.17;;;;;;;;;;5031242;28;20026;-68
2021/06/03 07:54:23;;;;;;;4.80;3.47;;;;;;;;;;5025679;28;20017;-68
2021/06/03 07:56:49;;;;;;;6.70;2.90;;;;;;;;;;5034044;28;20037;-68
2021/06/03 07:59:15;;;;;;;6.47;3.20;;;;;;;;;;5033822;28;20068;-68
2021/06/03 08:01:41;;;;;;;6.05;3.33;;;;;;;;;;5033040;28;20057;-68
2021/06/03 08:04:07;;;;;;;5.13;3.10;;;;;;;;;;5035094;28;20056;-67
2021/06/03 08:06:33;;;;;;;5.28;2.42;;;;;;;;;;5035119;28;20041;-69
2021/06/03 08:08:59;;;;;;;3.50;2.47;;;;;;;;;;5033149;28;20031;-69
2021/06/03 08:11:26;;;;;;;3.90;2.00;;;;;;;;;;5031502;28;20017;-69
2021/06/03 08:13:52;;;;;;;2.20;2.00;;;;;;;;;;5034557;28;20026;-69
2021/06/03 08:16:20;;;;;;;4.63;2.40;;;;;;;;;;5032168;28;20037;-68
2021/06/03 08:18:46;;;;;;;9.95;2.65;;;;;;;;;;5032012;28;20028;-69
2021/06/03 08:21:12;;;;;;;3.88;1.80;;;;;;;;;;5034339;28;20132;-68
2021/06/03 08:23:38;;;;;;;4.85;1.92;;;;;;;;;;5034281;28;20523;-69
2021/06/03 08:26:04;;;;;;;4.43;2.63;;;;;;;;;;5033827;28;20077;-69
2021/06/03 08:28:31;;;;;;;4.15;2.90;;;;;;;;;;5032810;28;20493;-70
2021/06/03 08:30:58;;;;;;;4.95;3.22;;;;;;;;;;5032107;28;20038;-71
2021/06/03 08:33:25;;;;;;;3.20;2.38;;;;;;;;;;5032160;28;20049;-69
2021/06/03 08:35:51;;;;;;;4.10;2.72;;;;;;;;;;5032041;28;20483;-69
2021/06/03 08:38:17;;;;;;;2.38;1.95;;;;;;;;;;5033219;28;20474;-70
2021/06/03 08:40:52;;;;;;;3.92;1.90;;;;;;;;;;5031041;28;20374;-68
2021/06/03 08:43:20;;;;;;;7.00;2.10;;;;;;;;;;5031866;28;20049;-68
2021/06/03 08:45:46;;;;;;;3.55;2.00;;;;;;;;;;5032652;28;20035;-69
2021/06/03 08:48:13;;;;;;;4.95;2.47;;;;;;;;;;5035561;28;20040;-69
2021/06/03 08:50:41;;;;;;;5.10;2.42;;;;;;;;;;5035406;28;20482;-69
2021/06/03 08:53:07;;;;;;;6.15;2.63;;;;;;;;;;5035133;28;20466;-70
2021/06/03 08:58:20;;;;;;;4.10;2.65;;;;;;;;;;5033091;28;20068;-69
2021/06/03 09:00:47;;;;;;;6.72;2.65;;;;;;;;;;5032889;28;20121;-69
2021/06/03 09:03:13;;;;;;;2.67;2.10;;;;;;;;;;5034468;28;20057;-70
2021/06/03 09:05:40;;;;;;;4.07;3.00;;;;;;;;;;5053110;28;20362;-70
2021/06/03 09:08:16;;;;;;;7.35;2.75;;;;;;;;;;5054009;28;20025;-67
2021/06/03 09:10:43;;;;;;;4.88;2.50;;;;;;;;;;5052170;28;20033;-68
2021/06/03 09:13:09;;;;;;;4.05;2.28;;;;;;;;;;5052515;28;20016;-67
2021/06/03 09:15:35;;;;;;;4.28;1.98;;;;;;;;;;5052894;28;20033;-69
2021/06/03 09:18:03;;;;;;;5.40;2.50;;;;;;;;;;5053372;28;20108;-69
2021/06/03 09:20:29;;;;;;;3.97;2.35;;;;;;;;;;5053597;28;20017;-69
2021/06/03 09:22:55;;;;;;;4.88;2.33;;;;;;;;;;5033038;28;20484;-69
2021/06/03 09:25:29;;;;;;;3.67;2.30;;;;;;;;;;5053632;28;20053;-70
2021/06/03 09:27:55;;;;;;;5.03;2.28;;;;;;;;;;5046419;28;20044;-71
2021/06/03 09:30:22;;;;;;;9.48;1.98;;;;;;;;;;5052316;28;20120;-69
2021/06/03 09:32:52;;;;;;;2.92;2.05;;;;;;;;;;5052717;28;20033;-69
2021/06/03 09:35:18;;;;;;;11.27;2.60;;;;;;;;;;5054232;28;20519;-69
2021/06/03 09:37:44;;;;;;;7.93;2.63;;;;;;;;;;5054320;28;20033;-69
2021/06/03 09:40:20;;;;;;;2.58;2.33;;;;;;;;;;5053940;28;20091;-69
2021/06/03 09:43:04;;;;;;;2.67;1.85;;;;;;;;;;5052566;28;20032;-69
2021/06/03 09:45:49;;;;;;;4.25;2.40;;;;;;;;;;5052773;28;20357;-72
2021/06/03 09:48:34;;;;;;;5.32;2.47;;;;;;;;;;5035769;28;20021;-70
2021/06/03 09:51:18;;;;;;;4.10;2.17;;;;;;;;;;5051437;28;20508;-70
2021/06/03 09:54:10;;;;;;;4.50;2.15;;;;;;;;;;5051296;28;20036;-71
2021/06/03 09:56:36;;;;;;;4.50;2.45;;;;;;;;;;5049082;28;20091;-70
2021/06/03 09:59:04;;;;;;;4.72;1.88;;;;;;;;;;5052706;28;20435;-70
2021/06/03 10:01:42;;;;;;;4.05;1.90;;;;;;;;;;5053072;28;20029;-70
2021/06/03 10:04:08;;;;;;;5.75;2.10;;;;;;;;;;5051264;28;20396;-70
2021/06/03 10:06:35;;;;;;;8.95;2.00;;;;;;;;;;5052020;28;20033;-70
2021/06/03 10:09:01;;;;;;;3.53;1.80;;;;;;;;;;5052245;28;20465;-69
2021/06/03 10:11:46;;;;;;;9.23;2.58;;;;;;;;;;5052988;28;20032;-67
2021/06/03 10:14:17;;;;;;;4.10;1.83;;;;;;;;;;5053076;28;20021;-68
2021/06/03 10:16:42;;;;;;;;;;;;;;;;;;5050495;28;20025;-68
2021/06/03 10:19:19;;;;;;;4.47;3.00;;;;;;;;;;5035086;28;20422;-69
2021/06/03 10:21:46;;;;;;;3.33;1.90;;;;;;;;;;5050488;28;20024;-68
2021/06/03 10:24:12;;;;;;;2.92;1.80;;;;;;;;;;5052488;28;20061;-69
2021/06/03 10:26:57;;;;;;;3.25;1.67;;;;;;;;;;5052978;28;20432;-69
2021/06/03 10:29:23;;;;;;;8.60;1.90;;;;;;;;;;5033705;28;20489;-69
2021/06/03 10:31:49;;;;;;;3.65;1.90;;;;;;;;;;5033490;28;20087;-69
2021/06/03 10:34:15;;;;;;;2.20;1.90;;;;;;;;;;5033577;28;20025;-69
2021/06/03 10:36:43;;;;;;;3.83;1.88;;;;;;;;;;5033540;28;20053;-68
2021/06/03 10:39:09;;;;;;;4.65;1.95;;;;;;;;;;5030260;28;20018;-70
2021/06/03 10:41:35;;;;;;;4.45;1.77;;;;;;;;;;5050122;28;20381;-70
2021/06/03 10:44:05;;;;;;;2.55;1.70;;;;;;;;;;5053252;28;20033;-69
2021/06/03 10:46:31;;;;;;;4.07;1.70;;;;;;;;;;5053422;28;20029;-68
2021/06/03 10:48:57;;;;;;;2.78;1.80;;;;;;;;;;5053184;28;20480;-70
2021/06/03 10:51:24;;;;;;;4.45;1.90;;;;;;;;;;5052982;28;20025;-74
2021/06/03 10:53:50;;;;;;;2.67;1.83;;;;;;;;;;5052841;28;20040;-73
2021/06/03 10:56:26;;;;;;;4.57;1.90;;;;;;;;;;5053134;28;20036;-71
2021/06/03 10:58:53;;;;;;;4.78;2.00;;;;;;;;;;5052888;28;20037;-73
2021/06/03 11:01:20;;;;;;;2.97;1.80;;;;;;;;;;5035107;28;20032;-71
2021/06/03 11:03:51;;;;;;;3.97;1.88;;;;;;;;;;5052961;28;20431;-72
2021/06/03 11:06:18;;;;;;;4.85;1.73;;;;;;;;;;5052825;28;20112;-74
2021/06/03 11:08:50;;;;;;;6.28;2.58;;;;;;;;;;5034937;28;20021;-72
2021/06/03 11:11:17;;;;;;;6.68;2.03;;;;;;;;;;5052761;28;20071;-72
2021/06/03 11:13:49;;;;;;;5.78;1.83;;;;;;;;;;5053120;28;20021;-71
2021/06/03 11:16:19;;;;;;;3.85;1.63;;;;;;;;;;5051871;28;20033;-70
2021/06/03 11:18:45;;;;;;;4.30;1.77;;;;;;;;;;5052939;28;20090;-71
2021/06/03 11:21:30;;;;;;;4.05;1.67;;;;;;;;;;5052558;28;20064;-73
2021/06/03 11:23:57;;;;;;;3.67;1.90;;;;;;;;;;5052720;28;20075;-73
2021/06/03 11:26:41;;;;;;;2.47;1.77;;;;;;;;;;5034573;28;20492;-74
2021/06/03 11:29:12;;;;;;;3.88;2.13;;;;;;;;;;5034471;28;20116;-75
2021/06/03 11:31:39;;;;;;;4.25;2.10;;;;;;;;;;5052778;28;20420;-73
2021/06/03 11:34:10;;;;;;;4.95;1.63;;;;;;;;;;5052606;28;20409;-72
2021/06/03 11:36:37;;;;;;;7.50;2.15;;;;;;;;;;5052513;28;20112;-72
2021/06/03 11:39:26;;;;;;;6.82;2.00;;;;;;;;;;5052524;28;20485;-71
2021/06/03 11:41:53;;;;;;;2.13;1.90;;;;;;;;;;5034112;28;20489;-70
2021/06/03 11:44:19;;;;;;;3.72;1.63;;;;;;;;;;5052222;28;20029;-70
2021/06/03 11:46:51;;;;;;;4.50;2.00;;;;;;;;;;5034483;28;20119;-71
2021/06/03 11:49:36;;;;;;;5.97;2.10;;;;;;;;;;5052190;28;20119;-71
2021/06/03 11:52:17;;;;;;;5.13;1.88;;;;;;;;;;5052407;28;20029;-68
2021/06/03 11:54:56;;;;;;;3.83;2.22;;;;;;;;;;5051131;28;20546;-68
2021/06/03 11:57:23;;;;;;;4.97;2.33;;;;;;;;;;5052578;28;20033;-68
2021/06/03 12:00:00;;;;;;;4.95;1.90;;;;;;;;;;5052254;28;20021;-70
2021/06/03 12:02:34;;;;;;;6.82;2.00;;;;;;;;;;5052369;28;20029;-70
2021/06/03 12:05:12;;;;;;;4.43;2.05;;;;;;;;;;5050632;28;20116;-70
2021/06/03 12:07:54;;;;;;;2.47;2.03;;;;;;;;;;5051357;28;20107;-72
2021/06/03 12:10:22;;;;;;;3.90;1.90;;;;;;;;;;5033624;28;20037;-71
2021/06/03 12:12:48;;;;;;;3.28;2.10;;;;;;;;;;5051795;28;20461;-72
2021/06/03 12:15:21;;;;;;;3.42;2.17;;;;;;;;;;5052115;28;20040;-71
2021/06/03 12:17:48;;;;;;;5.57;2.00;;;;;;;;;;5052085;28;20585;-71
2021/06/03 12:20:16;;;;;;;5.15;2.20;;;;;;;;;;5052233;28;20469;-75
2021/06/03 12:22:42;;;;;;;3.08;2.35;;;;;;;;;;5034286;28;20037;-72
2021/06/03 12:25:09;;;;;;;3.78;2.05;;;;;;;;;;5051785;28;20044;-71
2021/06/03 12:27:36;;;;;;;5.63;2.15;;;;;;;;;;5051811;28;20032;-70
2021/06/03 12:30:17;;;;;;;4.18;2.00;;;;;;;;;;5054973;28;20477;-73
2021/06/03 12:33:04;;;;;;;2.42;1.70;;;;;;;;;;5055473;28;20021;-71
2021/06/03 12:35:34;;;;;;;3.17;1.90;;;;;;;;;;5055717;28;20104;-72
2021/06/03 12:38:01;;;;;;;4.63;1.88;;;;;;;;;;5055723;28;20108;-71
2021/06/03 12:40:27;;;;;;;4.38;2.03;;;;;;;;;;5055433;28;20035;-71
2021/06/03 12:43:02;;;;;;;5.20;1.77;;;;;;;;;;5055660;28;20056;-73
2021/06/03 12:45:29;;;;;;;3.78;2.00;;;;;;;;;;5037747;28;20362;-71
2021/06/03 12:47:55;;;;;;;4.22;2.25;;;;;;;;;;5055301;28;20816;-70
2021/06/03 12:50:21;;;;;;;7.72;2.15;;;;;;;;;;5054396;28;20064;-68
2021/06/03 12:52:48;;;;;;;5.00;2.42;;;;;;;;;;5055258;28;20067;-68
2021/06/03 12:55:15;;;;;;;2.83;2.10;;;;;;;;;;5054996;28;20031;-69
2021/06/03 12:57:42;;;;;;;4.07;2.03;;;;;;;;;;5055010;28;20029;-69
2021/06/03 13:00:12;;;;;;;4.43;1.95;;;;;;;;;;5053688;28;20381;-71
2021/06/03 13:02:38;;;;;;;4.43;2.03;;;;;;;;;;5055267;28;20024;-70
2021/06/03 13:05:09;;;;;;;4.50;2.17;;;;;;;;;;5055092;28;20525;-70
2021/06/03 13:07:38;;;;;;;2.60;1.95;;;;;;;;;;5054879;28;20024;-69
2021/06/03 13:10:06;;;;;;;5.35;2.80;;;;;;;;;;5030417;28;20048;-68
2021/06/03 13:12:33;;;;;;;6.22;2.15;;;;;;;;;;5055180;28;20174;-68
2021/06/03 13:14:59;;;;;;;5.82;2.13;;;;;;;;;;5053659;28;20032;-69
2021/06/03 13:17:32;;;;;;;4.63;2.22;;;;;;;;;;5054698;28;20429;-68
2021/06/03 13:19:58;;;;;;;6.10;2.10;;;;;;;;;;5054423;28;20056;-69
2021/06/03 13:22:31;;;;;;;3.90;1.85;;;;;;;;;;5054867;28;20406;-70
2021/06/03 13:24:57;;;;;;;3.22;1.95;;;;;;;;;;5054527;28;20128;-70
2021/06/03 13:27:27;;;;;;;4.82;2.22;;;;;;;;;;5054784;28;20478;-68
2021/06/03 13:29:54;;;;;;;3.72;1.90;;;;;;;;;;5054155;28;20033;-68
2021/06/03 13:32:25;;;;;;;7.80;2.15;;;;;;;;;;5054119;28;20094;-68
2021/06/03 13:34:51;;;;;;;6.88;2.72;;;;;;;;;;5054064;28;20106;-67
2021/06/03 13:37:20;;;;;;;5.10;2.08;;;;;;;;;;5054562;28;20404;-68
2021/06/03 13:39:50;;;;;;;6.70;2.17;;;;;;;;;;5053594;28;20044;-68
2021/06/03 13:42:20;;;;;;;3.20;2.00;;;;;;;;;;5054530;28;20025;-69
2021/06/03 13:44:53;;;;;;;2.63;2.13;;;;;;;;;;5054379;28;20346;-69
2021/06/03 13:47:34;;;;;;;3.65;2.22;;;;;;;;;;5054361;28;20049;-69
2021/06/03 13:50:23;;;;;;;2.30;1.70;;;;;;;;;;5054330;28;20055;-68
2021/06/03 13:52:49;;;;;;;5.00;2.00;;;;;;;;;;5015803;28;20485;-67
2021/06/03 13:55:19;;;;;;;7.43;2.47;;;;;;;;;;5053368;28;20032;-67
2021/06/03 13:57:46;;;;;;;6.10;1.85;;;;;;;;;;5053977;28;20040;-68
2021/06/03 14:00:22;;;;;;;6.88;2.22;;;;;;;;;;5035312;28;20029;-69
2021/06/03 14:03:02;;;;;;;3.33;1.85;;;;;;;;;;5053689;28;20032;-69
2021/06/03 14:05:29;;;;;;;3.45;2.03;;;;;;;;;;5053509;28;20025;-69
2021/06/03 14:08:13;;;;;;;4.03;2.40;;;;;;;;;;5054046;28;20040;-70
